TimeCDT,TemperatureF,Dew PointF,Humidity,Sea Level PressureIn,VisibilityMPH,Wind Direction,Wind SpeedMPH,Gust SpeedMPH,PrecipitationIn,Events,Conditions,WindDirDegrees,DateUTC
12:24 AM,3.2,-0.4,85,30.44,10.0,WNW,12.7,-,N/A,,Mostly Cloudy,300,2013-03-25 05:24:00
12:55 AM,3.2,-0.2,86,30.45,10.0,WNW,12.7,-,N/A,,Mostly Cloudy,300,2013-03-25 05:55:00
1:01 AM,3.2,-0.4,85,30.45,10.0,WNW,12.7,-,N/A,,Scattered Clouds,300,2013-03-25 06:01:00
1:55 AM,2.3,-1.5,84,30.45,10.0,WNW,13.8,-,N/A,,Partly Cloudy,300,2013-03-25 06:55:00
2:55 AM,1.8,-2.2,83,30.46,10.0,WNW,11.5,-,N/A,,Clear,300,2013-03-25 07:55:00
3:55 AM,-1.8,-5.6,84,30.45,10.0,NW,12.7,-,N/A,,Clear,310,2013-03-25 08:55:00
4:55 AM,-0.8,-4.5,84,30.45,10.0,WNW,12.7,-,N/A,,Clear,300,2013-03-25 09:55:00
5:55 AM,-2.2,-6.2,83,30.46,10.0,WNW,10.4,-,N/A,,Clear,300,2013-03-25 10:55:00
6:55 AM,-2.2,-6.2,83,30.47,10.0,WNW,8.1,-,N/A,,Clear,300,2013-03-25 11:55:00
7:55 AM,-2.2,-6.2,83,30.48,10.0,WNW,10.4,-,N/A,,Clear,300,2013-03-25 12:55:00
8:55 AM,-1.5,-5.4,83,30.50,10.0,WNW,9.2,-,N/A,,Clear,300,2013-03-25 13:55:00
9:49 AM,1.4,-2.2,85,30.51,10.0,WNW,8.1,-,N/A,,Partly Cloudy,300,2013-03-25 14:49:00
9:55 AM,1.9,-1.8,84,30.51,10.0,WNW,9.2,-,N/A,,Scattered Clouds,300,2013-03-25 14:55:00
9:57 AM,1.4,-2.2,85,30.51,10.0,WNW,9.2,-,N/A,,Mostly Cloudy,300,2013-03-25 14:57:00
10:06 AM,3.2,-0.4,85,30.51,10.0,WNW,8.1,-,N/A,Snow,Light Snow,300,2013-03-25 15:06:00
10:22 AM,5.0,1.4,85,30.51,8.0,WNW,8.1,-,N/A,Snow,Light Snow,300,2013-03-25 15:22:00
10:40 AM,6.8,3.2,85,30.51,9.0,WNW,9.2,-,N/A,Snow,Light Snow,300,2013-03-25 15:40:00
10:50 AM,6.8,3.2,85,30.51,9.0,WNW,8.1,-,N/A,,Overcast,300,2013-03-25 15:50:00
10:55 AM,6.8,3.2,85,30.51,10.0,WNW,8.1,-,0.00,,Overcast,300,2013-03-25 15:55:00
11:07 AM,6.8,3.2,85,30.51,10.0,WNW,10.4,-,N/A,,Overcast,300,2013-03-25 16:07:00
11:14 AM,6.8,3.2,85,30.51,10.0,WNW,10.4,-,N/A,,Freezing Rain,290,2013-03-25 16:14:00
11:26 AM,8.6,5.0,85,30.51,7.0,WNW,10.4,-,N/A,,Overcast,300,2013-03-25 16:26:00
11:29 AM,8.6,5.0,85,30.51,7.0,WNW,9.2,-,N/A,,Overcast,300,2013-03-25 16:29:00
11:48 AM,10.4,5.0,79,30.51,6.0,WNW,8.1,-,N/A,,Overcast,300,2013-03-25 16:48:00
11:55 AM,10.4,5.9,82,30.51,5.0,WNW,8.1,-,0.00,,Overcast,290,2013-03-25 16:55:00
12:16 PM,10.4,6.8,85,30.50,7.0,WNW,8.1,-,N/A,,Overcast,290,2013-03-25 17:16:00
12:43 PM,12.2,8.6,85,30.50,6.0,West,8.1,-,N/A,,Overcast,280,2013-03-25 17:43:00
12:55 PM,12.6,8.1,82,30.49,7.0,West,8.1,-,0.00,,Overcast,280,2013-03-25 17:55:00
1:14 PM,14.0,8.6,79,30.49,2.5,NW,5.8,-,N/A,,Overcast,320,2013-03-25 18:14:00
1:24 PM,14.0,8.6,79,30.49,1.8,NW,8.1,-,N/A,,Overcast,320,2013-03-25 18:24:00
1:25 PM,14.0,8.6,79,30.49,2.0,NW,8.1,-,N/A,,Overcast,320,2013-03-25 18:25:00
1:33 PM,14.0,8.6,79,30.48,3.0,NW,8.1,-,N/A,,Overcast,320,2013-03-25 18:33:00
1:55 PM,14.0,9.3,82,30.48,7.0,NW,6.9,-,0.00,,Overcast,320,2013-03-25 18:55:00
2:10 PM,14.0,8.6,79,30.48,10.0,NW,6.9,-,N/A,,Scattered Clouds,310,2013-03-25 19:10:00
2:55 PM,14.9,10.2,82,30.48,10.0,WNW,4.6,-,N/A,,Clear,290,2013-03-25 19:55:00
3:55 PM,15.8,10.6,80,30.47,10.0,WNW,4.6,-,N/A,,Clear,300,2013-03-25 20:55:00
4:55 PM,16.5,10.9,79,30.46,10.0,NW,4.6,-,N/A,,Clear,310,2013-03-25 21:55:00
5:55 PM,17.2,10.6,75,30.45,10.0,Calm,Calm,-,N/A,,Clear,0,2013-03-25 22:55:00
6:55 PM,13.8,7.7,77,30.44,10.0,Calm,Calm,-,N/A,,Clear,0,2013-03-25 23:55:00
7:55 PM,7.5,3.7,85,30.44,10.0,Calm,Calm,-,N/A,,Clear,0,2013-03-26 00:55:00
8:44 PM,1.4,-2.2,85,30.45,2.5,SE,3.5,-,N/A,,Clear,140,2013-03-26 01:44:00
8:45 PM,1.4,-2.2,85,30.45,1.8,SE,3.5,-,N/A,,Clear,140,2013-03-26 01:45:00
8:46 PM,1.4,-2.2,85,30.45,1.2,SE,3.5,-,N/A,,Clear,140,2013-03-26 01:46:00
8:47 PM,1.4,-2.2,85,30.45,1.0,SE,3.5,-,N/A,,Clear,140,2013-03-26 01:47:00
8:48 PM,1.4,-2.2,85,30.45,0.8,SE,3.5,-,N/A,,Clear,140,2013-03-26 01:48:00
8:49 PM,1.4,-2.2,85,30.45,0.8,SE,3.5,-,N/A,,Clear,140,2013-03-26 01:49:00
8:50 PM,1.4,-2.2,85,30.45,0.5,SE,3.5,-,N/A,Fog,Light Freezing Fog,140,2013-03-26 01:50:00
8:52 PM,1.4,-2.2,85,30.45,0.5,SSE,3.5,-,N/A,Fog,Light Freezing Fog,150,2013-03-26 01:52:00
8:53 PM,1.4,-2.2,85,30.45,0.5,SSE,3.5,-,N/A,Fog,Light Freezing Fog,150,2013-03-26 01:53:00
8:54 PM,1.4,-2.2,85,30.45,0.5,SSE,3.5,-,N/A,Fog,Light Freezing Fog,150,2013-03-26 01:54:00
8:55 PM,1.6,-2.2,84,30.45,0.5,SSE,3.5,-,N/A,Fog,Light Freezing Fog,150,2013-03-26 01:55:00
8:59 PM,1.4,-2.2,85,30.45,0.5,South,3.5,-,N/A,Fog,Light Freezing Fog,170,2013-03-26 01:59:00
9:00 PM,1.4,-2.2,85,30.45,0.5,South,3.5,-,N/A,Fog,Light Freezing Fog,180,2013-03-26 02:00:00
9:01 PM,1.4,-4.0,78,30.45,0.5,South,3.5,-,N/A,,Haze,180,2013-03-26 02:01:00
9:02 PM,1.4,-4.0,78,30.45,0.5,South,3.5,-,N/A,,Haze,180,2013-03-26 02:02:00
9:03 PM,-0.4,-4.0,85,30.45,0.8,South,3.5,-,N/A,,Haze,180,2013-03-26 02:03:00
9:06 PM,-0.4,-4.0,85,30.45,1.0,South,3.5,-,N/A,,Haze,180,2013-03-26 02:06:00
9:07 PM,-0.4,-4.0,85,30.45,1.2,South,3.5,-,N/A,,Haze,180,2013-03-26 02:07:00
9:08 PM,-0.4,-5.8,78,30.45,1.5,South,3.5,-,N/A,,Haze,180,2013-03-26 02:08:00
9:11 PM,-2.2,-5.8,85,30.45,2.0,South,3.5,-,N/A,,Haze,170,2013-03-26 02:11:00
9:12 PM,-2.2,-5.8,85,30.45,1.8,South,4.6,-,N/A,,Haze,170,2013-03-26 02:12:00
9:14 PM,-2.2,-7.6,78,30.45,2.0,South,4.6,-,N/A,,Haze,170,2013-03-26 02:14:00
9:17 PM,-2.2,-7.6,78,30.45,4.0,South,4.6,-,N/A,,Haze,170,2013-03-26 02:17:00
9:32 PM,-4.0,-9.4,78,30.45,2.0,South,3.5,-,N/A,,Haze,170,2013-03-26 02:32:00
9:33 PM,-4.0,-9.4,78,30.45,1.8,South,3.5,-,N/A,,Haze,170,2013-03-26 02:33:00
9:34 PM,-4.0,-9.4,78,30.45,1.2,South,3.5,-,N/A,,Haze,170,2013-03-26 02:34:00
9:36 PM,-4.0,-9.4,78,30.45,1.0,Calm,Calm,-,N/A,,Haze,0,2013-03-26 02:36:00
9:37 PM,-4.0,-9.4,78,30.45,0.8,Calm,Calm,-,N/A,,Haze,0,2013-03-26 02:37:00
9:38 PM,-4.0,-9.4,78,30.45,0.8,Calm,Calm,-,N/A,,Haze,0,2013-03-26 02:38:00
9:39 PM,-5.8,-9.4,84,30.45,0.8,Calm,Calm,-,N/A,,Haze,0,2013-03-26 02:39:00
9:40 PM,-5.8,-9.4,84,30.45,0.8,South,3.5,-,N/A,,Haze,170,2013-03-26 02:40:00
9:41 PM,-5.8,-9.4,84,30.45,0.8,South,3.5,-,N/A,,Haze,170,2013-03-26 02:41:00
9:42 PM,-5.8,-9.4,84,30.45,0.5,South,3.5,-,N/A,,Haze,170,2013-03-26 02:42:00
9:51 PM,-5.8,-9.4,84,30.45,0.8,South,3.5,-,N/A,,Haze,170,2013-03-26 02:51:00
9:52 PM,-5.8,-9.4,84,30.45,0.8,South,3.5,-,N/A,,Haze,170,2013-03-26 02:52:00
9:55 PM,-5.4,-9.8,82,30.45,0.8,South,3.5,-,N/A,,Haze,180,2013-03-26 02:55:00
9:56 PM,-5.8,-9.4,84,30.45,1.0,South,3.5,-,N/A,,Haze,180,2013-03-26 02:56:00
10:00 PM,-5.8,-9.4,84,30.45,1.2,South,3.5,-,N/A,,Haze,170,2013-03-26 03:00:00
10:02 PM,-5.8,-9.4,84,30.45,1.0,SSE,3.5,-,N/A,,Haze,160,2013-03-26 03:02:00
10:03 PM,-5.8,-9.4,84,30.45,0.8,SSE,3.5,-,N/A,,Haze,160,2013-03-26 03:03:00
10:05 PM,-5.8,-9.4,84,30.45,0.5,SSE,3.5,-,N/A,,Haze,160,2013-03-26 03:05:00
10:06 PM,-5.8,-9.4,84,30.45,0.5,SSE,3.5,-,N/A,,Haze,160,2013-03-26 03:06:00
10:10 PM,-5.8,-9.4,84,30.45,0.2,SSE,3.5,-,N/A,,Haze,160,2013-03-26 03:10:00
10:11 PM,-4.0,-9.4,78,30.45,0.2,SSE,3.5,-,N/A,,Haze,160,2013-03-26 03:11:00
10:12 PM,-4.0,-9.4,78,30.45,0.2,SSE,3.5,-,N/A,,Haze,160,2013-03-26 03:12:00
10:15 PM,-4.0,-9.4,78,30.45,0.2,SSE,3.5,-,N/A,,Haze,160,2013-03-26 03:15:00
10:35 PM,-4.0,-7.6,85,30.44,0.2,Calm,Calm,-,N/A,,Haze,0,2013-03-26 03:35:00
10:58 PM,-5.8,-9.4,84,30.44,0.2,Calm,Calm,-,N/A,,Haze,0,2013-03-26 03:58:00
11:12 PM,-5.8,-11.2,77,30.43,0.2,Calm,Calm,-,N/A,,Haze,0,2013-03-26 04:12:00
11:14 PM,-5.8,-11.2,77,30.43,0.2,Calm,Calm,-,N/A,,Haze,0,2013-03-26 04:14:00
11:16 PM,-5.8,-11.2,77,30.43,0.5,Calm,Calm,-,N/A,,Haze,0,2013-03-26 04:16:00
11:25 PM,-5.8,-9.4,84,30.43,0.2,Calm,Calm,-,N/A,,Haze,0,2013-03-26 04:25:00
11:27 PM,-5.8,-9.4,84,30.43,0.2,Calm,Calm,-,N/A,,Haze,0,2013-03-26 04:27:00
11:28 PM,-5.8,-9.4,84,30.43,0.2,Calm,Calm,-,N/A,,Haze,0,2013-03-26 04:28:00
11:41 PM,-5.8,-11.2,77,30.43,0.2,Calm,Calm,-,N/A,,Haze,0,2013-03-26 04:41:00
11:46 PM,-5.8,-11.2,77,30.43,0.5,Calm,Calm,-,N/A,,Haze,0,2013-03-26 04:46:00
11:48 PM,-5.8,-11.2,77,30.43,0.5,Calm,Calm,-,N/A,,Haze,0,2013-03-26 04:48:00
11:49 PM,-5.8,-11.2,77,30.43,0.5,Calm,Calm,-,N/A,,Haze,0,2013-03-26 04:49:00
11:55 PM,-6.2,-10.7,81,30.43,0.8,Calm,Calm,-,N/A,,Haze,0,2013-03-26 04:55:00
11:59 PM,-7.6,-11.2,84,30.43,0.5,Calm,Calm,-,N/A,,Haze,0,2013-03-26 04:59:00